weather.gov     
National Weather Service

Terminal Aerodrome Forecast
NWS Homepage
This page is being discontinued on March 12, 2014.
The same data is available at this site. Please update your bookmarks.
Thank you, and we apologize for the inconvenience.
Please send an email to SR-SRH.Webmaster@noaa.gov with any concerns.


Current Version
Previous Version:    01  02  03  04  05  06  07  08  09  10  11  12  13  14  15  16  17  18  19  20  21  22  23  24  25  26  27  28  29  30  
   31  
[Printable]
164
FTUS45 KGJT 230828 AAD
TAFGJT
TAF AMD
KGJT 230828Z 2308/2406 13012KT P6SM VCTS OVC080CB
      TEMPO 2308/2312 VRB15G25KT -SHRA SCT050 OVC070
     FM231200 12012KT P6SM VCSH SCT050 BKN120
     FM231500 24010KT P6SM VCSH BKN120
     FM231800 24012G20KT P6SM VCSH SCT080 BKN120
     FM240000 27012G20KT P6SM BKN200=




164
FTUS45 KGJT 230828 AAD
TAFGJT
TAF AMD
KGJT 230828Z 2308/2406 13012KT P6SM VCTS OVC080CB
      TEMPO 2308/2312 VRB15G25KT -SHRA SCT050 OVC070
     FM231200 12012KT P6SM VCSH SCT050 BKN120
     FM231500 24010KT P6SM VCSH BKN120
     FM231800 24012G20KT P6SM VCSH SCT080 BKN120
     FM240000 27012G20KT P6SM BKN200=


U.S. Dept. of Commerce
NOAA National Weather Service
1325 East West Highway
Silver Spring, MD 20910
E-mail: w-nws.webmaster@noaa.gov
Page last modified: May 16, 2007
NATIONAL WEATHER SERVICE: for Safety, for Work, for Fun - FOR LIFE